createdAt,value
2018-11-06T00:02:18.314Z,95766.78
2018-11-06T00:04:52.623Z,95773.26
2018-11-06T00:07:20.086Z,95779.02
2018-11-06T00:09:48.394Z,95775.31
2018-11-06T00:12:16.622Z,95775.88
2018-11-06T00:14:44.191Z,95770.58
2018-11-06T00:17:11.819Z,95771.36
2018-11-06T00:19:39.771Z,95764.70
2018-11-06T00:22:07.053Z,95758.05
2018-11-06T00:24:34.774Z,95749.49
2018-11-06T00:27:03.469Z,95759.38
2018-11-06T00:29:30.757Z,95758.47
2018-11-06T00:31:58.324Z,95751.81
2018-11-06T00:34:26.648Z,95749.31
2018-11-06T00:36:55.055Z,95758.22
2018-11-06T00:39:24.501Z,95754.13
2018-11-06T00:41:53.386Z,95752.17
2018-11-06T00:44:20.808Z,95750.39
2018-11-06T00:46:48.186Z,95751.87
2018-11-06T00:49:17.522Z,95746.05
2018-11-06T00:51:44.775Z,95748.94
2018-11-06T00:54:13.048Z,95748.19
2018-11-06T00:56:42.691Z,95752.44
2018-11-06T00:59:11.690Z,95744.81
2018-11-06T01:01:39.348Z,95746.05
2018-11-06T01:04:09.461Z,95741.52
2018-11-06T01:06:37.054Z,95740.69
2018-11-06T01:09:06.176Z,95733.41
2018-11-06T01:11:34.017Z,95733.02
2018-11-06T01:14:02.460Z,95735.70
2018-11-06T01:16:29.902Z,95734.86
2018-11-06T01:18:57.204Z,95736.75
2018-11-06T01:21:26.103Z,95738.11
2018-11-06T01:23:53.500Z,95735.06
2018-11-06T01:26:20.849Z,95740.13
2018-11-06T01:28:49.680Z,95735.90
2018-11-06T01:31:17.147Z,95735.39
2018-11-06T01:33:44.582Z,95739.06
2018-11-06T01:36:11.905Z,95742.88
2018-11-06T01:38:39.512Z,95738.72
2018-11-06T01:41:06.864Z,95736.50
2018-11-06T01:43:34.241Z,95729.73
2018-11-06T01:46:02.599Z,95728.89
2018-11-06T01:48:36.920Z,95730.19
2018-11-06T01:51:04.508Z,95728.50
2018-11-06T01:53:31.867Z,95727.98
2018-11-06T01:55:59.320Z,95725.30
2018-11-06T01:58:26.809Z,95724.84
2018-11-06T02:00:54.234Z,95715.33
2018-11-06T02:03:21.489Z,95718.56
2018-11-06T02:05:49.017Z,95717.41
2018-11-06T02:08:16.463Z,95715.48
2018-11-06T02:10:44.292Z,95721.59
2018-11-06T02:13:12.497Z,95720.94
2018-11-06T02:15:41.248Z,95722.64
2018-11-06T02:18:08.656Z,95720.34
2018-11-06T02:20:36.666Z,95713.60
2018-11-06T02:23:04.200Z,95712.67
2018-11-06T02:25:31.788Z,95711.40
2018-11-06T02:27:59.611Z,95711.45
2018-11-06T02:30:26.940Z,95715.33
2018-11-06T02:32:55.799Z,95712.34
2018-11-06T02:35:24.213Z,95711.05
2018-11-06T02:37:51.811Z,95711.86
2018-11-06T02:40:19.913Z,95705.05
2018-11-06T02:42:47.253Z,95708.45
2018-11-06T02:45:15.658Z,95711.78
2018-11-06T02:47:43.239Z,95717.76
2018-11-06T02:50:11.548Z,95717.19
2018-11-06T02:52:40.755Z,95719.61
2018-11-06T02:55:08.721Z,95716.02
2018-11-06T02:57:38.475Z,95713.33
2018-11-06T03:00:13.666Z,95712.24
2018-11-06T03:02:42.129Z,95713.17
2018-11-06T03:05:10.342Z,95708.72
2018-11-06T03:07:37.784Z,95710.19
2018-11-06T03:10:05.608Z,95707.39
2018-11-06T03:12:33.606Z,95703.23
2018-11-06T03:15:00.992Z,95702.95
2018-11-06T03:17:30.399Z,95703.60
2018-11-06T03:19:58.593Z,95699.28
2018-11-06T03:22:26.189Z,95704.09
2018-11-06T03:24:54.281Z,95703.23
2018-11-06T03:27:21.634Z,95711.66
2018-11-06T03:29:49.402Z,95715.38
2018-11-06T03:32:17.387Z,95721.94
2018-11-06T03:34:44.929Z,95721.30
2018-11-06T03:37:12.402Z,95721.87
2018-11-06T03:39:39.789Z,95735.89
2018-11-06T03:42:07.228Z,95739.69
2018-11-06T03:44:35.663Z,95741.42
2018-11-06T03:47:03.017Z,95738.19
2018-11-06T03:49:30.347Z,95746.42
2018-11-06T03:51:57.713Z,95746.14
2018-11-06T03:54:25.325Z,95749.30
2018-11-06T03:56:55.001Z,95748.44
2018-11-06T03:59:22.354Z,95746.98
2018-11-06T04:01:51.070Z,95745.22
2018-11-06T04:04:18.571Z,95741.82
2018-11-06T04:06:47.307Z,95744.41
2018-11-06T04:09:16.697Z,95746.59
2018-11-06T04:11:46.844Z,95738.95
2018-11-06T04:14:15.765Z,95732.94
2018-11-06T04:16:43.140Z,95723.72
2018-11-06T04:19:12.057Z,95735.14
2018-11-06T04:21:40.180Z,95736.80
2018-11-06T04:24:13.243Z,95741.70
2018-11-06T04:26:42.744Z,95741.45
2018-11-06T04:29:10.649Z,95739.31
2018-11-06T04:31:38.614Z,95738.19
2018-11-06T04:34:06.383Z,95734.06
2018-11-06T04:36:33.756Z,95732.20
2018-11-06T04:39:01.121Z,95719.20
2018-11-06T04:41:30.711Z,95708.02
2018-11-06T04:43:58.002Z,95700.18
2018-11-06T04:46:26.211Z,95705.62
2018-11-06T04:48:54.565Z,95703.58
2018-11-06T04:51:21.938Z,95699.89
2018-11-06T04:53:49.674Z,95709.95
2018-11-06T04:56:17.057Z,95706.92
2018-11-06T04:58:46.632Z,95706.72
2018-11-06T05:01:14.499Z,95697.88
2018-11-06T05:03:47.322Z,95693.23
2018-11-06T05:06:17.634Z,95696.22
2018-11-06T05:08:45.808Z,95698.97
2018-11-06T05:11:14.475Z,95694.00
2018-11-06T05:13:42.305Z,95688.46
2018-11-06T05:16:11.881Z,95693.25
2018-11-06T05:18:39.287Z,95697.38
2018-11-06T05:21:08.425Z,95702.30
2018-11-06T05:23:36.037Z,95703.20
2018-11-06T05:26:03.923Z,95710.95
2018-11-06T05:28:31.373Z,95716.59
2018-11-06T05:31:00.796Z,95709.92
2018-11-06T05:33:28.227Z,95708.92
2018-11-06T05:35:55.653Z,95710.86
2018-11-06T05:38:24.142Z,95696.48
2018-11-06T05:40:59.820Z,95718.06
2018-11-06T05:43:28.644Z,95714.10
2018-11-06T05:45:58.815Z,95720.11
2018-11-06T05:48:27.867Z,95716.23
2018-11-06T05:50:57.033Z,95712.61
2018-11-06T05:53:24.391Z,95710.23
2018-11-06T05:55:52.852Z,95715.97
2018-11-06T05:58:20.249Z,95711.81
2018-11-06T06:00:48.592Z,95706.56
2018-11-06T06:03:16.010Z,95700.46
2018-11-06T06:05:50.452Z,95703.77
2018-11-06T06:08:22.356Z,95700.25
2018-11-06T06:10:51.842Z,95688.70
2018-11-06T06:13:19.337Z,95689.33
2018-11-06T06:15:46.685Z,95687.67
2018-11-06T06:18:15.778Z,95693.05
2018-11-06T06:20:45.422Z,95694.51
2018-11-06T06:23:15.604Z,95694.59
2018-11-06T06:25:44.398Z,95697.67
2018-11-06T06:28:11.948Z,95690.48
2018-11-06T06:30:40.963Z,95690.28
2018-11-06T06:33:08.309Z,95693.60
2018-11-06T06:35:36.380Z,95694.69
2018-11-06T06:38:05.714Z,95703.94
2018-11-06T06:40:33.924Z,95707.53
2018-11-06T06:43:04.009Z,95707.26
2018-11-06T06:45:31.953Z,95709.77
2018-11-06T06:48:00.755Z,95718.54
2018-11-06T06:50:30.453Z,95725.56
2018-11-06T06:52:59.216Z,95729.34
2018-11-06T06:55:27.424Z,95726.83
2018-11-06T06:57:54.928Z,95725.09
2018-11-06T07:00:23.801Z,95718.34
2018-11-06T07:02:52.755Z,95719.20
2018-11-06T07:05:23.669Z,95712.45
2018-11-06T07:07:51.085Z,95704.59
2018-11-06T07:10:20.349Z,95713.88
2018-11-06T07:12:50.381Z,95711.66
2018-11-06T07:15:22.053Z,95713.02
2018-11-06T07:17:51.599Z,95716.59
2018-11-06T07:20:21.456Z,95711.84
2018-11-06T07:22:51.000Z,95710.98
2018-11-06T07:25:18.411Z,95703.26
2018-11-06T07:27:46.713Z,95697.20
2018-11-06T07:30:16.365Z,95694.07
2018-11-06T07:32:45.554Z,95694.69
2018-11-06T07:35:13.684Z,95695.59
2018-11-06T07:37:41.475Z,95695.16
2018-11-06T07:40:16.040Z,95687.02
2018-11-06T07:42:44.111Z,95694.20
2018-11-06T07:45:16.162Z,95692.32
2018-11-06T07:47:43.826Z,95698.39
2018-11-06T07:50:12.519Z,95693.70
2018-11-06T07:52:40.969Z,95694.08
2018-11-06T07:55:11.114Z,95695.92
2018-11-06T07:57:40.507Z,95692.05
2018-11-06T08:00:11.764Z,95696.13
2018-11-06T08:02:40.092Z,95695.67
2018-11-06T08:05:09.625Z,95688.85
2018-11-06T08:07:39.221Z,95682.88
2018-11-06T08:10:10.392Z,95687.19
2018-11-06T08:12:38.455Z,95689.11
2018-11-06T08:15:06.524Z,95690.67
2018-11-06T08:17:39.723Z,95690.95
2018-11-06T08:20:07.337Z,95682.41
2018-11-06T08:22:37.230Z,95690.19
2018-11-06T08:25:05.185Z,95689.33
2018-11-06T08:27:33.237Z,95683.22
2018-11-06T08:30:03.583Z,95693.05
2018-11-06T08:32:31.895Z,95698.85
2018-11-06T08:34:58.800Z,95693.76
2018-11-06T08:37:32.414Z,95687.11
2018-11-06T08:40:01.627Z,95689.31
2018-11-06T08:42:29.079Z,95684.91
2018-11-06T08:44:57.927Z,95682.41
2018-11-06T08:47:27.278Z,95690.54
2018-11-06T08:49:54.728Z,95698.81
2018-11-06T08:52:23.005Z,95700.44
2018-11-06T08:54:54.003Z,95697.92
2018-11-06T08:57:21.483Z,95690.68
2018-11-06T08:59:51.049Z,95683.80
2018-11-06T09:02:18.506Z,95678.78
2018-11-06T09:04:46.541Z,95673.16
2018-11-06T09:07:15.779Z,95675.50
2018-11-06T09:09:46.003Z,95666.63
2018-11-06T09:12:14.063Z,95668.34
2018-11-06T09:14:41.449Z,95667.52
2018-11-06T09:17:10.804Z,95661.02
2018-11-06T09:19:39.747Z,95654.95
2018-11-06T09:22:08.790Z,95664.01
2018-11-06T09:24:36.378Z,95666.70
2018-11-06T09:27:04.871Z,95676.02
2018-11-06T09:29:33.288Z,95672.83
2018-11-06T09:32:01.963Z,95669.00
2018-11-06T09:34:31.069Z,95662.76
2018-11-06T09:36:59.005Z,95660.42
2018-11-06T09:39:26.939Z,95657.53
2018-11-06T09:41:54.651Z,95661.02
2018-11-06T09:44:22.760Z,95662.69
2018-11-06T09:46:51.614Z,95661.73
2018-11-06T09:49:19.967Z,95668.75
2018-11-06T09:51:47.699Z,95665.52
2018-11-06T09:54:15.193Z,95652.59
2018-11-06T09:56:43.183Z,95658.27
2018-11-06T09:59:12.018Z,95656.08
2018-11-06T10:01:41.087Z,95654.64
2018-11-06T10:04:08.501Z,95652.16
2018-11-06T10:06:38.762Z,95645.95
2018-11-06T10:09:08.106Z,95646.57
2018-11-06T10:11:35.944Z,95629.18
2018-11-06T10:14:04.505Z,95645.41
2018-11-06T10:16:31.908Z,95648.02
2018-11-06T10:19:01.355Z,95652.09
2018-11-06T10:21:29.498Z,95654.52
2018-11-06T10:23:57.012Z,95641.90
2018-11-06T10:26:24.736Z,95634.23
2018-11-06T10:28:52.379Z,95628.25
2018-11-06T10:31:20.562Z,95622.88
2018-11-06T10:33:49.777Z,95623.11
2018-11-06T10:36:17.353Z,95632.77
2018-11-06T10:38:44.824Z,95625.59
2018-11-06T10:41:13.293Z,95617.40
2018-11-06T10:43:42.447Z,95618.64
2018-11-06T10:46:12.877Z,95613.06
2018-11-06T10:48:41.807Z,95605.84
2018-11-06T10:51:09.192Z,95612.03
2018-11-06T10:53:36.796Z,95610.20
2018-11-06T10:56:05.063Z,95608.50
2018-11-06T10:58:34.056Z,95598.41
2018-11-06T11:01:08.965Z,95596.17
2018-11-06T11:03:40.185Z,95593.03
2018-11-06T11:06:10.659Z,95592.35
2018-11-06T11:08:40.196Z,95588.58
2018-11-06T11:11:09.777Z,95589.77
2018-11-06T11:13:39.544Z,95587.98
2018-11-06T11:16:09.732Z,95587.59
2018-11-06T11:18:37.068Z,95593.84
2018-11-06T11:21:05.941Z,95595.87
2018-11-06T11:23:33.316Z,95595.99
2018-11-06T11:26:01.709Z,95587.65
2018-11-06T11:28:31.265Z,95588.16
2018-11-06T11:30:58.880Z,95579.25
2018-11-06T11:33:26.241Z,95585.50
2018-11-06T11:35:53.571Z,95583.85
2018-11-06T11:38:20.866Z,95589.77
2018-11-06T11:40:48.774Z,95587.98
2018-11-06T11:43:18.486Z,95592.89
2018-11-06T11:45:46.063Z,95590.45
2018-11-06T11:48:13.452Z,95586.59
2018-11-06T11:50:41.526Z,95587.14
2018-11-06T11:53:09.397Z,95575.94
2018-11-06T11:55:37.372Z,95578.55
2018-11-06T11:58:06.849Z,95571.41
2018-11-06T12:00:37.408Z,95552.08
2018-11-06T12:03:08.106Z,95562.62
2018-11-06T12:05:35.491Z,95560.98
2018-11-06T12:08:03.653Z,95558.33
2018-11-06T12:10:31.059Z,95559.00
2018-11-06T12:12:59.832Z,95560.30
2018-11-06T12:15:30.001Z,95554.31
2018-11-06T12:17:59.680Z,95552.55
2018-11-06T12:20:29.954Z,95550.76
2018-11-06T12:22:57.202Z,95545.50
2018-11-06T12:25:24.757Z,95540.71
2018-11-06T12:27:54.148Z,95540.84
2018-11-06T12:30:23.337Z,95541.20
2018-11-06T12:32:50.675Z,95546.80
2018-11-06T12:35:17.962Z,95543.55
2018-11-06T12:37:45.949Z,95539.69
2018-11-06T12:40:14.235Z,95540.49
2018-11-06T12:42:42.485Z,95542.48
2018-11-06T12:45:15.347Z,95543.47
2018-11-06T12:47:44.334Z,95532.80
2018-11-06T12:50:11.806Z,95533.44
2018-11-06T12:52:39.550Z,95531.23
2018-11-06T12:55:09.007Z,95524.49
2018-11-06T12:57:38.463Z,95526.76
2018-11-06T13:00:09.991Z,95523.62
2018-11-06T13:02:38.106Z,95532.70
2018-11-06T13:05:06.278Z,95521.13
2018-11-06T13:07:36.455Z,95517.14
2018-11-06T13:10:04.817Z,95517.73
2018-11-06T13:12:32.246Z,95519.25
2018-11-06T13:15:00.575Z,95521.03
2018-11-06T13:17:29.689Z,95515.77
2018-11-06T13:19:56.990Z,95520.67
2018-11-06T13:22:26.587Z,95512.49
2018-11-06T13:24:54.059Z,95513.61
2018-11-06T13:27:21.814Z,95515.18
2018-11-06T13:29:50.010Z,95515.98
2018-11-06T13:32:17.401Z,95516.97
2018-11-06T13:34:45.955Z,95505.22
2018-11-06T13:37:13.983Z,95503.50
2018-11-06T13:39:42.628Z,95502.23
2018-11-06T13:42:09.999Z,95506.95
2018-11-06T13:44:38.420Z,95511.06
2018-11-06T13:47:05.649Z,95517.66
2018-11-06T13:49:33.652Z,95522.42
2018-11-06T13:58:59.635Z,95507.30
2018-11-06T14:01:29.889Z,95513.06
2018-11-06T14:03:58.396Z,95521.13
2018-11-06T14:06:26.759Z,95512.91
2018-11-06T14:08:55.203Z,95520.94
2018-11-06T14:11:25.485Z,95522.61
2018-11-06T14:13:52.936Z,95515.45
2018-11-06T14:16:20.522Z,95524.54
2018-11-06T14:18:49.329Z,95513.70
2018-11-06T14:21:16.921Z,95520.47
2018-11-06T14:23:46.301Z,95521.13
2018-11-06T14:26:14.384Z,95531.52
2018-11-06T14:28:41.888Z,95531.70
2018-11-06T14:31:09.961Z,95535.16
2018-11-06T14:33:39.364Z,95530.88
2018-11-06T14:36:08.456Z,95535.47
2018-11-06T14:38:36.687Z,95534.66
2018-11-06T14:41:04.849Z,95538.77
2018-11-06T14:43:36.099Z,95536.28
2018-11-06T14:46:04.444Z,95537.25
2018-11-06T14:48:32.635Z,95540.84
2018-11-06T14:50:59.892Z,95544.77
2018-11-06T14:53:27.957Z,95550.36
2018-11-06T14:55:55.298Z,95547.36
2018-11-06T14:58:22.886Z,95549.00
2018-11-06T15:00:51.253Z,95553.59
2018-11-06T15:03:18.801Z,95551.41
2018-11-06T15:05:47.650Z,95557.45
2018-11-06T15:08:15.092Z,95556.62
2018-11-06T15:10:43.890Z,95557.09
2018-11-06T15:13:11.348Z,95557.36
2018-11-06T15:15:42.459Z,95562.54
2018-11-06T15:18:10.755Z,95568.88
2018-11-06T15:20:38.711Z,95566.97
2018-11-06T15:23:06.155Z,95574.80
2018-11-06T15:25:33.695Z,95578.45
2018-11-06T15:28:03.221Z,95583.13
2018-11-06T15:30:30.671Z,95590.94
2018-11-06T15:32:58.147Z,95597.55
2018-11-06T15:35:25.571Z,95602.55
2018-11-06T15:37:53.075Z,95599.45
2018-11-06T15:40:21.794Z,95598.95
2018-11-06T15:42:52.783Z,95612.20
2018-11-06T15:45:21.469Z,95610.08
2018-11-06T15:47:49.254Z,95611.28
2018-11-06T15:50:18.488Z,95623.74
2018-11-06T15:52:49.414Z,95641.50
2018-11-06T15:55:16.740Z,95656.19
2018-11-06T15:57:44.224Z,95675.88
2018-11-06T16:00:15.735Z,95664.34
2018-11-06T16:02:44.224Z,95702.08
2018-11-06T16:05:12.051Z,95703.60
2018-11-06T16:07:41.304Z,95713.22
2018-11-06T16:10:13.379Z,95722.59
2018-11-06T16:12:41.549Z,95733.91
2018-11-06T16:15:12.301Z,95739.81
2018-11-06T16:17:39.667Z,95744.34
2018-11-06T16:20:08.910Z,95749.46
2018-11-06T16:22:36.391Z,95738.27
2018-11-06T16:25:05.261Z,95741.80
2018-11-06T16:27:32.624Z,95745.31
2018-11-06T16:30:00.053Z,95746.16
2018-11-06T16:32:28.089Z,95753.36
2018-11-06T16:34:56.270Z,95760.99
2018-11-06T16:37:24.453Z,95763.02
2018-11-06T16:39:54.039Z,95757.86
2018-11-06T16:42:21.433Z,95752.88
2018-11-06T16:44:48.954Z,95758.61
2018-11-06T16:47:16.362Z,95759.58
2018-11-06T16:49:45.034Z,95751.81
2018-11-06T16:52:13.262Z,95748.51
2018-11-06T16:54:40.702Z,95760.38
2018-11-06T16:57:08.261Z,95761.50
2018-11-06T16:59:35.839Z,95772.13
2018-11-06T17:02:03.260Z,95752.75
2018-11-06T17:04:32.889Z,95780.99
2018-11-06T17:07:01.696Z,95790.34
2018-11-06T17:09:29.833Z,95790.34
2018-11-06T17:12:00.330Z,95779.16
2018-11-06T17:14:27.816Z,95787.89
2018-11-06T17:16:56.182Z,95789.27
2018-11-06T17:19:23.604Z,95784.72
2018-11-06T17:21:50.956Z,95799.16
2018-11-06T17:24:18.351Z,95799.60
2018-11-06T17:26:46.560Z,95804.71
2018-11-06T17:29:15.627Z,95802.29
2018-11-06T17:31:43.693Z,95782.12
2018-11-06T17:34:10.955Z,95814.39
2018-11-06T17:36:38.404Z,95816.32
2018-11-06T17:39:08.665Z,95818.69
2018-11-06T17:41:36.106Z,95813.19
2018-11-06T17:44:04.743Z,95812.73
2018-11-06T17:46:32.205Z,95824.04
2018-11-06T17:49:01.306Z,95832.89
2018-11-06T17:51:28.921Z,95833.13
2018-11-06T17:53:56.374Z,95836.23
2018-11-06T17:56:23.906Z,95836.31
2018-11-06T17:58:51.651Z,95845.55
2018-11-06T18:01:19.071Z,95850.55
2018-11-06T18:03:48.654Z,95846.44
2018-11-06T18:06:15.835Z,95854.52
2018-11-06T18:08:45.487Z,95869.73
2018-11-06T18:11:13.294Z,95867.20
2018-11-06T18:13:40.705Z,95873.52
2018-11-06T18:16:08.312Z,95874.95
2018-11-06T18:18:35.772Z,95880.64
2018-11-06T18:21:03.651Z,95887.63
2018-11-06T18:23:32.200Z,95885.25
2018-11-06T18:25:59.572Z,95884.83
2018-11-06T18:28:27.037Z,95884.48
2018-11-06T18:30:57.238Z,95882.13
2018-11-06T18:33:27.266Z,95885.35
2018-11-06T18:35:55.712Z,95884.63
2018-11-06T18:38:23.100Z,95887.50
2018-11-06T18:40:50.490Z,95891.42
2018-11-06T18:43:18.337Z,95888.55
2018-11-06T18:45:46.373Z,95894.70
2018-11-06T18:48:14.928Z,95896.20
2018-11-06T18:50:42.785Z,95897.50
2018-11-06T18:53:10.249Z,95896.80
2018-11-06T18:55:37.581Z,95898.69
2018-11-06T18:58:05.333Z,95907.68
2018-11-06T19:02:02.199Z,95915.67
2018-11-06T19:04:31.679Z,95913.64
2018-11-06T19:06:59.029Z,95906.17
2018-11-06T19:09:27.114Z,95897.03
2018-11-06T19:11:57.547Z,95886.20
2018-11-06T19:14:25.020Z,95886.44
2018-11-06T19:16:52.849Z,95889.89
2018-11-06T19:19:21.454Z,95899.73
2018-11-06T19:21:50.753Z,95894.73
2018-11-06T19:24:21.345Z,95910.02
2018-11-06T19:26:48.943Z,95907.60
2018-11-06T19:29:16.467Z,95899.41
2018-11-06T19:31:43.788Z,95904.22
2018-11-06T19:34:13.176Z,95907.30
2018-11-06T19:36:40.557Z,95903.61
2018-11-06T19:39:10.782Z,95905.30
2018-11-06T19:41:39.210Z,95910.21
2018-11-06T19:44:07.724Z,95914.48
2018-11-06T19:46:35.205Z,95921.73
2018-11-06T19:49:02.774Z,95921.42
2018-11-06T19:51:30.478Z,95925.71
2018-11-06T19:53:57.856Z,95924.75
2018-11-06T19:56:26.235Z,95922.84
2018-11-06T19:58:53.718Z,95932.80
2018-11-06T20:01:21.604Z,95932.83
2018-11-06T20:03:49.128Z,95939.23
2018-11-06T20:06:27.616Z,95941.27
2018-11-06T20:09:08.102Z,95944.75
2018-11-06T20:11:40.752Z,95937.41
2018-11-06T20:14:09.992Z,95941.58
2018-11-06T20:16:38.206Z,95943.12
2018-11-06T20:19:07.798Z,95942.54
2018-11-06T20:21:35.749Z,95946.34
2018-11-06T20:24:03.326Z,95949.32
2018-11-06T20:26:30.962Z,95948.03
2018-11-06T20:28:58.232Z,95952.52
2018-11-06T20:31:25.638Z,95951.48
2018-11-06T20:33:54.267Z,95947.34
2018-11-06T20:36:21.757Z,95961.55
2018-11-06T20:38:50.250Z,95959.89
2018-11-06T20:41:17.806Z,95963.09
2018-11-06T20:43:45.262Z,95964.39
2018-11-06T20:46:13.565Z,95967.83
2018-11-06T20:48:41.331Z,95966.27
2018-11-06T20:51:09.768Z,95955.97
2018-11-06T20:53:37.230Z,95955.02
2018-11-06T20:56:06.224Z,95974.13
2018-11-06T20:58:35.113Z,95975.66
2018-11-06T21:01:05.056Z,95973.52
2018-11-06T21:03:32.482Z,95969.95
2018-11-06T21:06:00.513Z,95968.66
2018-11-06T21:08:27.776Z,95980.29
2018-11-06T21:10:56.301Z,95983.25
2018-11-06T21:13:23.853Z,95982.77
2018-11-06T21:15:51.035Z,95981.46
2018-11-06T21:18:20.783Z,95981.39
2018-11-06T21:20:49.569Z,95987.06
2018-11-06T21:23:17.885Z,95989.56
2018-11-06T21:25:45.535Z,95994.38
2018-11-06T21:28:13.892Z,95985.99
2018-11-06T21:30:41.238Z,95989.66
2018-11-06T21:33:08.662Z,95988.45
2018-11-06T21:35:38.574Z,95984.88
2018-11-06T21:38:06.301Z,95984.14
2018-11-06T21:40:33.668Z,95980.72
2018-11-06T21:43:01.049Z,95983.67
2018-11-06T21:45:28.794Z,95985.69
2018-11-06T21:47:58.353Z,95983.63
2018-11-06T21:50:26.685Z,95987.32
2018-11-06T21:52:56.197Z,95989.77
2018-11-06T21:55:23.659Z,95988.20
2018-11-06T21:57:53.322Z,95982.24
2018-11-06T22:00:21.137Z,95982.02
2018-11-06T22:02:48.522Z,95989.42
2018-11-06T22:05:17.005Z,95987.17
2018-11-06T22:07:44.519Z,95985.42
2018-11-06T22:10:15.432Z,95993.44
2018-11-06T22:17:36.842Z,95996.55
2018-11-06T22:20:05.259Z,95999.66
2018-11-06T22:22:35.097Z,95998.03
2018-11-06T22:25:03.590Z,95999.22
2018-11-06T22:27:30.892Z,95997.93
2018-11-06T22:29:58.911Z,96002.55
2018-11-06T22:32:27.075Z,96004.09
2018-11-06T22:34:56.162Z,96006.09
2018-11-06T22:37:23.961Z,96007.86
2018-11-06T22:39:51.280Z,96011.16
2018-11-06T22:42:19.100Z,96011.48
2018-11-06T22:44:47.240Z,96007.92
2018-11-06T22:47:14.641Z,96007.47
2018-11-06T22:49:42.091Z,96007.19
2018-11-06T22:52:10.697Z,96005.41
2018-11-06T22:54:39.770Z,96008.78
2018-11-06T22:57:07.198Z,96010.58
2018-11-06T22:59:35.324Z,95985.50
2018-11-06T23:02:02.984Z,96011.13
2018-11-06T23:04:30.517Z,96013.19
2018-11-06T23:06:57.961Z,96009.95
2018-11-06T23:09:25.305Z,96012.98
2018-11-06T23:11:53.983Z,96007.27
2018-11-06T23:14:21.747Z,96002.49
2018-11-06T23:16:51.120Z,96010.20
2018-11-06T23:19:19.683Z,96006.81
2018-11-06T23:21:47.003Z,96009.23
2018-11-06T23:24:14.414Z,96011.91
2018-11-06T23:26:42.455Z,96010.95
2018-11-06T23:29:09.806Z,96010.50
2018-11-06T23:31:39.357Z,96003.97
2018-11-06T23:34:07.052Z,96015.52
2018-11-06T23:36:34.441Z,96011.94
2018-11-06T23:39:04.019Z,96006.22
2018-11-06T23:41:32.502Z,96006.70
2018-11-06T23:44:01.963Z,96017.66
2018-11-06T23:46:29.959Z,96018.72
2018-11-06T23:48:57.624Z,96020.27
2018-11-06T23:51:25.816Z,96022.61
2018-11-06T23:53:54.569Z,96024.00
2018-11-06T23:56:22.807Z,96019.42
2018-11-06T23:58:49.986Z,96018.35
